Aeroporto :
LOGIN :

Iscrizione | Disclaimer

   EN    FR    IT 

 










Sommario :    VFR   VFR Marginale   IFR   IFR Intensivo   IFR Molto Intensivo
Visibilità : 
Base nubi : 
>= 8 km
>= 3000ft
5 / 8 km
1000 / 3000 ft
1500m / 5 km
500 / 1000 ft
800 / 1500m
200 / 500 ft
< 800m
< 200 ft
Simboli :   Temporali  Nebbia  Neve Forte  Precipitazioni Forti  Vento > 20 kt
SIGMETs :   Varie  Temporali  Ghiacco  Turbolenza  Onda orograficha  Ceneri Vulcaniche






- Altitudine del aeroporto : 187 ft


ETNW - Wunstorf AB

ULTIMO METAR :
  • 230720Z 19007KT 9999 FEW060 BKN090 21/15 Q1015 BLU BLU

METARs OBSOLETI :
  • 230620Z 20007KT 9999 FEW070 BKN090 20/14 Q1016 BLU BLU
  • 230520Z 18006KT 9999 BKN090 19/15 Q1016 BLU BLU
  • 230420Z 19007KT 9999 FEW070 BKN090 18/14 Q1016 BLU BLU

TAF TAF ETNW
Valido dal 23 a 05 ore il 24 a 05 ore UTC


230423Z 2305/2405 20005KT 9999 NSW BKN070
BECMG 2306/2308 24010KT 9999 NSW BKN025
TEMPO 2309/2321 23012KT 4000 SHRA BKN020CB
PROB30 2309/2321 22015G30KT 2000 +TSRA BKN010CB
BECMG 2316/2318 27010KT 9999 NSW SCT010 BKN030
TEMPO 2321/2405 27005KT 4000 -RA SCT005 BKN010



MetMap, La meteo Aeronautica in un colpo d'occhio ! - Copyright ORBIFLY Dicembre 2007 - Disclaimer

ORBIFLY MET'MAP TEAM :

Programmazione e sviluppo : Alexandra Zaïnal
Concezione : Baudouin d'Aumeries
Supporto tecnico e logistico : Manuel Goepfert
Aiuto : Marc-Olivier Méhu
Aiuto per la traduzione : Arnaldo La Scala




FONTI E CREDITI :

   NOAA